Weather at Sacramento International Airport

Public forecast

Using degrees Fahrenheit for public forecast. Weather courtesy of forecast.io.

Current aviation weather report (METAR) for Sacramento International Airport

Report is more than 6 hours old.

2022/11/14 14:53 (retrieved 2 years ago)

KSMF 141453Z 34003KT 8SM CLR 02/01 A3018 RMK AO2 SLP219 T00220006 53008

Aviation forecast (TAF) for Sacramento International Airport

Forecast is more than 12 hours old.

2023/02/22 18:33 (retrieved 1 year ago)

TAF KSMF 221731Z 2218/2318 20010KT P6SM BKN100 FM222100 19007KT P6SM VCSH BKN100 FM230200 17010KT P6SM OVC100 FM231200 17015KT P6SM OVC050